Time;durP1;ratioP1;P1;durP2;ratioP2;P2;SDS_P1;SDS_P2;PMS_P1;PMS_P2;Temp;Humidity;BMP_temperature;BMP_pressure;BME280_temperature;BME280_humidity;BME280_pressure;Samples;Min_cycle;Max_cycle;Signal;HPM_P1;HPM_P2
2021/11/01 00:02:26;;;;;;;4.45;1.52;;;;;;;12.83;100.00;98012.19;5144555;27;20593;-73
2021/11/01 00:04:54;;;;;;;3.17;1.65;;;;;;;12.78;100.00;98005.53;5145542;27;20267;-73
2021/11/01 00:07:20;;;;;;;2.28;1.70;;;;;;;12.83;100.00;98003.25;5142669;27;20522;-74
2021/11/01 00:09:47;;;;;;;2.55;1.40;;;;;;;12.86;100.00;98011.03;5135462;27;20278;-74
2021/11/01 00:12:13;;;;;;;2.95;1.60;;;;;;;12.74;100.00;98021.13;5143012;27;20199;-74
2021/11/01 00:14:41;;;;;;;4.57;1.55;;;;;;;12.66;100.00;98023.69;5143185;27;20190;-74
2021/11/01 00:17:07;;;;;;;3.50;1.42;;;;;;;12.70;100.00;98028.66;5135027;27;20204;-74
2021/11/01 00:19:34;;;;;;;6.50;1.50;;;;;;;12.79;100.00;98031.50;5122973;27;20180;-74
2021/11/01 00:22:02;;;;;;;1.83;1.10;;;;;;;12.70;100.00;98033.22;5141865;27;20718;-74
2021/11/01 00:24:29;;;;;;;3.97;2.28;;;;;;;12.83;100.00;98022.13;5137561;27;20186;-74
2021/11/01 00:26:55;;;;;;;3.60;1.60;;;;;;;12.88;100.00;98022.56;5137156;27;20656;-72
2021/11/01 00:29:22;;;;;;;6.90;2.05;;;;;;;12.82;100.00;98025.81;5140172;27;20278;-75
2021/11/01 00:31:49;;;;;;;3.10;1.73;;;;;;;12.68;100.00;98032.50;5150392;27;20187;-74
2021/11/01 00:34:15;;;;;;;7.50;4.55;;;;;;;12.76;100.00;98045.31;5125049;27;20191;-75
2021/11/01 00:36:42;;;;;;;11.45;3.95;;;;;;;12.83;100.00;98051.84;5121540;27;20649;-74
2021/11/01 00:39:10;;;;;;;8.90;3.10;;;;;;;12.84;100.00;98053.53;5126976;27;20278;-74
2021/11/01 00:41:36;;;;;;;7.40;2.72;;;;;;;12.85;100.00;98058.81;5133069;27;20187;-74
2021/11/01 00:44:03;;;;;;;11.00;5.40;;;;;;;12.89;100.00;98059.41;5129329;27;20191;-74
2021/11/01 00:46:30;;;;;;;7.60;4.35;;;;;;;12.86;100.00;98067.75;5121724;27;20192;-74
2021/11/01 00:48:57;;;;;;;8.18;3.88;;;;;;;12.83;100.00;98066.19;5135843;27;20185;-74
2021/11/01 00:51:23;;;;;;;7.25;3.90;;;;;;;12.76;100.00;98075.88;5123223;27;20618;-74
2021/11/01 00:53:50;;;;;;;13.13;4.60;;;;;;;12.90;100.00;98078.16;5125649;27;20227;-74
2021/11/01 00:56:18;;;;;;;10.93;4.95;;;;;;;12.97;100.00;98077.59;5129248;27;20189;-74
2021/11/01 00:58:45;;;;;;;6.82;3.65;;;;;;;13.04;100.00;98071.47;5138015;27;20310;-74
2021/11/01 01:01:15;;;;;;;5.35;3.47;;;;;;;12.98;100.00;98063.94;5135864;27;20194;-75
2021/11/01 01:03:43;;;;;;;5.20;3.00;;;;;;;12.92;100.00;98045.59;5135830;27;20541;-73
2021/11/01 01:06:10;;;;;;;6.45;3.15;;;;;;;13.09;100.00;98050.28;5123934;27;20589;-74
2021/11/01 01:08:36;;;;;;;5.00;3.53;;;;;;;13.12;100.00;98060.81;5146821;27;20594;-75
2021/11/01 01:11:03;;;;;;;5.50;2.88;;;;;;;13.13;100.00;98062.50;5117844;27;20283;-74
2021/11/01 01:13:36;;;;;;;7.05;2.50;;;;;;;13.27;100.00;98060.38;5136142;27;20191;-74
2021/11/01 01:16:09;;;;;;;3.70;1.98;;;;;;;13.25;100.00;98048.84;5134431;27;20676;-74
2021/11/01 01:18:38;;;;;;;5.32;2.50;;;;;;;13.20;100.00;98029.50;5133934;27;20209;-74
2021/11/01 01:22:12;;;;;;;4.00;2.75;;;;;;;13.23;100.00;98027.38;5123049;27;20202;-75
2021/11/01 01:24:01;;;;;;;6.25;2.47;;;;;;;13.17;100.00;98019.00;5130236;27;20189;-74
2021/11/01 01:26:28;;;;;;;4.93;2.55;;;;;;;13.14;100.00;98009.34;5126040;27;20200;-74
2021/11/01 01:28:57;;;;;;;2.60;1.95;;;;;;;13.19;100.00;98015.16;5131472;27;20183;-75
2021/11/01 01:31:24;;;;;;;8.07;2.20;;;;;;;13.18;100.00;97985.56;5135949;27;20642;-74
2021/11/01 01:33:51;;;;;;;6.40;2.20;;;;;;;13.24;100.00;97979.59;5126854;27;20190;-73
2021/11/01 01:36:18;;;;;;;8.95;4.07;;;;;;;13.12;100.00;97925.72;5134438;27;20196;-73
2021/11/01 01:38:46;;;;;;;5.55;2.42;;;;;;;12.82;100.00;97956.47;5132798;27;20213;-73
2021/11/01 01:41:15;;;;;;;4.40;1.77;;;;;;;12.96;100.00;97974.09;5138727;27;20183;-74
2021/11/01 01:43:45;;;;;;;3.55;2.42;;;;;;;12.89;100.00;98008.06;5132855;27;20195;-73
2021/11/01 01:46:13;;;;;;;4.68;2.00;;;;;;;12.99;100.00;97992.69;5137164;27;20201;-73
2021/11/01 01:48:41;;;;;;;6.63;2.35;;;;;;;12.88;100.00;97988.28;5130811;27;20641;-75
2021/11/01 01:51:08;;;;;;;3.78;2.17;;;;;;;13.02;100.00;97995.09;5140738;27;20658;-73
2021/11/01 01:53:35;;;;;;;8.60;4.38;;;;;;;12.81;100.00;97987.16;5123597;27;20291;-73
2021/11/01 01:56:02;;;;;;;7.20;3.80;;;;;;;12.89;100.00;97994.56;5139159;27;20603;-73
2021/11/01 01:58:40;;;;;;;6.22;2.92;;;;;;;12.88;100.00;98011.75;5139046;27;20219;-74
2021/11/01 02:01:08;;;;;;;6.93;3.17;;;;;;;12.89;100.00;98017.03;5135853;27;20270;-74
2021/11/01 02:03:38;;;;;;;8.13;2.97;;;;;;;12.96;100.00;98022.72;5132432;27;20281;-74
2021/11/01 02:06:09;;;;;;;5.63;2.88;;;;;;;12.94;100.00;98035.50;5148910;27;20226;-74
2021/11/01 02:08:41;;;;;;;6.32;2.00;;;;;;;12.81;100.00;98029.53;5125863;27;20220;-73
2021/11/01 02:11:14;;;;;;;4.68;1.80;;;;;;;12.91;100.00;98017.75;5138647;27;20538;-73
2021/11/01 02:13:44;;;;;;;5.57;2.47;;;;;;;12.99;100.00;98029.69;5124085;27;20613;-73
2021/11/01 02:16:13;;;;;;;4.00;1.90;;;;;;;13.03;100.00;98041.91;5138029;27;20192;-74
2021/11/01 02:18:44;;;;;;;11.23;2.35;;;;;;;12.84;100.00;98040.88;5142562;27;20207;-74
2021/11/01 02:21:25;;;;;;;5.35;2.00;;;;;;;12.76;100.00;98037.22;5127173;27;20191;-74
2021/11/01 02:24:03;;;;;;;3.78;2.10;;;;;;;12.82;100.00;98047.44;5141699;27;20622;-74
2021/11/01 02:26:32;;;;;;;7.03;2.35;;;;;;;12.79;100.00;98045.03;5129698;27;20279;-73
2021/11/01 02:29:00;;;;;;;7.55;3.25;;;;;;;12.72;100.00;98033.94;5142343;27;20200;-74
2021/11/01 02:31:27;;;;;;;10.00;2.70;;;;;;;12.69;100.00;98026.13;5124613;27;20195;-73
2021/11/01 02:33:55;;;;;;;7.07;2.47;;;;;;;12.83;100.00;98039.19;5121612;27;20200;-75
2021/11/01 02:36:21;;;;;;;5.28;2.40;;;;;;;12.80;100.00;98031.38;5136153;27;20273;-74
2021/11/01 02:38:50;;;;;;;7.40;2.60;;;;;;;12.71;100.00;98034.94;5139142;27;20210;-73
2021/11/01 02:41:20;;;;;;;12.15;3.25;;;;;;;12.69;100.00;98036.91;5131456;27;20252;-74
2021/11/01 02:43:53;;;;;;;7.43;3.35;;;;;;;12.69;100.00;98034.22;5132672;27;20183;-73
2021/11/01 02:46:20;;;;;;;7.65;4.38;;;;;;;12.85;100.00;98050.72;5135972;27;20285;-74
2021/11/01 02:48:47;;;;;;;8.52;3.60;;;;;;;12.79;100.00;98048.56;5130998;28;20276;-74
2021/11/01 02:51:15;;;;;;;6.63;2.90;;;;;;;12.93;100.00;98055.41;5132141;27;20210;-74
2021/11/01 02:53:42;;;;;;;5.97;2.55;;;;;;;12.86;100.00;98044.28;5118791;27;20230;-74
2021/11/01 02:56:10;;;;;;;7.85;3.92;;;;;;;12.98;100.00;98039.63;5137333;27;20219;-73
2021/11/01 02:58:37;;;;;;;6.18;2.38;;;;;;;12.93;100.00;98029.25;5125989;27;20296;-74
2021/11/01 03:01:05;;;;;;;10.90;5.60;;;;;;;13.00;100.00;98037.66;5136044;27;20201;-74
2021/11/01 03:03:32;;;;;;;12.68;3.53;;;;;;;12.89;100.00;98033.22;5133660;27;20196;-74
2021/11/01 03:06:00;;;;;;;10.45;3.90;;;;;;;12.79;100.00;98021.56;5132847;27;20743;-74
2021/11/01 03:08:29;;;;;;;8.85;3.10;;;;;;;12.75;100.00;98013.88;5124637;27;20187;-73
2021/11/01 03:10:57;;;;;;;10.57;3.70;;;;;;;12.55;100.00;98016.59;5147801;27;20223;-74
2021/11/01 03:13:24;;;;;;;12.73;3.92;;;;;;;12.56;100.00;98033.63;5119462;27;20193;-74
2021/11/01 03:15:51;;;;;;;6.05;3.10;;;;;;;12.43;100.00;98031.19;5129187;27;20182;-73
2021/11/01 03:18:22;;;;;;;11.25;5.30;;;;;;;12.59;100.00;98036.88;5128638;27;20213;-73
2021/11/01 03:20:50;;;;;;;10.73;4.40;;;;;;;12.71;100.00;98030.38;5142655;27;20180;-74
2021/11/01 03:23:22;;;;;;;6.20;2.75;;;;;;;12.89;100.00;98032.38;5136468;27;20282;-74
2021/11/01 03:25:53;;;;;;;14.82;4.30;;;;;;;12.88;100.00;98030.66;5135966;27;20188;-74
2021/11/01 03:28:21;;;;;;;7.78;4.05;;;;;;;12.76;100.00;98037.22;5129128;27;20274;-75
2021/11/01 03:30:50;;;;;;;10.45;4.90;;;;;;;12.62;100.00;98031.22;5129190;27;20274;-74
2021/11/01 03:33:17;;;;;;;16.55;4.35;;;;;;;12.73;100.00;98041.91;5124299;27;20217;-73
2021/11/01 03:35:47;;;;;;;5.60;2.50;;;;;;;12.89;100.00;98048.59;5138080;27;20191;-74
2021/11/01 03:38:15;;;;;;;4.45;2.20;;;;;;;12.92;99.99;98043.75;5119530;27;20228;-72
2021/11/01 03:40:46;;;;;;;11.68;3.40;;;;;;;12.90;100.00;98051.13;5135835;27;20184;-73
2021/11/01 03:43:17;;;;;;;11.27;4.50;;;;;;;12.86;100.00;98048.84;5129717;27;20183;-73
2021/11/01 03:45:44;;;;;;;8.05;3.80;;;;;;;12.88;100.00;98063.06;5124079;27;20226;-74
2021/11/01 03:48:13;;;;;;;5.75;2.60;;;;;;;12.97;100.00;98067.63;5135778;27;20281;-73
2021/11/01 03:50:43;;;;;;;10.73;3.33;;;;;;;12.99;99.44;98073.75;5130634;27;20196;-73
2021/11/01 03:53:12;;;;;;;5.82;2.20;;;;;;;12.91;100.00;98073.59;5132493;27;20184;-74
2021/11/01 03:55:39;;;;;;;3.72;2.10;;;;;;;12.79;99.86;98074.72;5140354;27;20637;-73
2021/11/01 03:58:06;;;;;;;10.32;3.20;;;;;;;12.69;99.80;98080.97;5136063;27;20307;-74
2021/11/01 04:00:35;;;;;;;13.02;2.55;;;;;;;12.71;99.45;98078.13;5108591;27;20194;-74
2021/11/01 04:03:03;;;;;;;7.53;2.42;;;;;;;12.77;100.00;98076.72;5131338;27;20190;-74
2021/11/01 04:05:30;;;;;;;6.85;2.20;;;;;;;12.78;97.18;98087.38;5125270;27;20227;-73
2021/11/01 04:07:56;;;;;;;6.97;2.92;;;;;;;12.63;99.13;98065.31;5134626;27;20217;-72
2021/11/01 04:10:25;;;;;;;7.85;3.10;;;;;;;12.49;100.00;98063.88;5134909;27;20190;-72
2021/11/01 04:12:52;;;;;;;10.80;4.80;;;;;;;12.52;99.51;98063.59;5126809;27;20286;-73
2021/11/01 04:15:21;;;;;;;9.43;4.13;;;;;;;12.48;99.92;98064.00;5128308;27;20207;-72
2021/11/01 04:17:51;;;;;;;10.77;4.00;;;;;;;12.44;99.62;98076.09;5147800;27;20179;-74
2021/11/01 04:20:32;;;;;;;7.05;2.92;;;;;;;12.72;98.25;98069.88;5127276;27;20243;-73
2021/11/01 04:23:01;;;;;;;9.40;2.75;;;;;;;12.84;96.81;98078.69;5145836;27;20303;-74
2021/11/01 04:25:31;;;;;;;8.88;3.20;;;;;;;12.83;95.80;98071.59;5141295;27;20198;-73
2021/11/01 04:27:59;;;;;;;9.60;2.67;;;;;;;12.85;96.42;98075.03;5117297;27;20188;-73
2021/11/01 04:30:29;;;;;;;7.32;2.72;;;;;;;12.87;95.71;98073.03;5130330;27;20287;-73
2021/11/01 04:32:59;;;;;;;6.25;2.97;;;;;;;12.87;96.47;98066.78;5136396;27;20273;-73
2021/11/01 04:35:27;;;;;;;6.70;3.03;;;;;;;12.97;95.03;98062.22;5140484;27;20190;-74
2021/11/01 04:38:00;;;;;;;8.57;2.97;;;;;;;12.87;94.89;98080.28;5130142;27;20188;-73
2021/11/01 04:40:45;;;;;;;7.18;2.45;;;;;;;12.93;94.33;98066.19;5128394;27;20192;-73
2021/11/01 04:54:09;;;;;;;11.57;3.45;;;;;;;12.79;95.48;98091.78;5123095;27;20206;-73
2021/11/01 04:56:37;;;;;;;7.18;3.28;;;;;;;12.79;95.54;98086.38;5132376;27;20511;-74
2021/11/01 04:59:07;;;;;;;7.40;2.88;;;;;;;12.80;95.82;98098.03;5135124;27;20291;-74
2021/11/01 05:01:37;;;;;;;6.00;3.10;;;;;;;12.85;94.72;98095.78;5128757;27;20312;-74
2021/11/01 05:04:06;;;;;;;7.38;2.95;;;;;;;12.77;96.53;98085.66;5124206;27;20220;-74
2021/11/01 05:06:33;;;;;;;9.95;2.30;;;;;;;12.73;97.65;98077.00;5129144;27;20227;-74
2021/11/01 05:09:06;;;;;;;6.60;2.63;;;;;;;12.75;97.97;98090.34;5142132;27;20202;-73
2021/11/01 05:11:35;;;;;;;6.20;2.42;;;;;;;12.83;97.22;98089.66;5142629;27;20182;-74
2021/11/01 05:14:03;;;;;;;9.80;2.65;;;;;;;12.87;96.55;98094.66;5119656;27;20207;-74
2021/11/01 05:16:41;;;;;;;5.50;2.40;;;;;;;12.87;96.89;98099.19;5122213;27;20187;-73
2021/11/01 05:19:17;;;;;;;3.97;2.10;;;;;;;12.88;96.90;98100.91;5132935;27;20199;-73
2021/11/01 05:21:51;;;;;;;7.10;2.05;;;;;;;12.85;97.09;98091.22;5131503;27;20195;-73
2021/11/01 05:24:25;;;;;;;7.60;2.00;;;;;;;12.69;99.18;98090.91;5128148;27;20191;-73
2021/11/01 05:27:08;;;;;;;6.45;2.65;;;;;;;12.66;99.13;98086.66;5136260;27;20194;-73
2021/11/01 05:29:38;;;;;;;11.45;2.80;;;;;;;12.61;98.33;98088.06;5133348;27;20184;-72
2021/11/01 05:32:11;;;;;;;7.70;3.13;;;;;;;12.53;97.74;98091.47;5139239;27;20194;-73
2021/11/01 05:34:37;;;;;;;5.63;2.70;;;;;;;12.64;95.43;98087.75;5138075;27;20186;-73
2021/11/01 05:37:05;;;;;;;7.53;2.20;;;;;;;12.34;94.07;98086.00;5142064;27;20197;-73
2021/11/01 05:39:32;;;;;;;5.00;2.38;;;;;;;12.17;96.23;98098.31;5119546;27;20656;-73
2021/11/01 05:41:59;;;;;;;5.78;2.80;;;;;;;12.17;95.94;98096.44;5136988;27;20549;-74
2021/11/01 05:44:25;;;;;;;9.32;2.65;;;;;;;12.29;96.42;98105.28;5130813;27;20219;-73
2021/11/01 05:46:53;;;;;;;7.65;2.50;;;;;;;12.18;96.30;98106.25;5132661;27;20271;-72
2021/11/01 05:49:22;;;;;;;10.95;3.22;;;;;;;12.07;97.52;98104.50;5131532;27;20216;-76
2021/11/01 05:51:50;;;;;;;7.30;3.20;;;;;;;12.21;96.99;98114.06;5119291;27;20682;-74
2021/11/01 05:54:19;;;;;;;9.18;2.55;;;;;;;12.14;96.23;98098.56;5122984;27;20196;-73
2021/11/01 05:56:51;;;;;;;6.13;2.38;;;;;;;12.11;95.79;98105.06;5136177;27;20191;-73
2021/11/01 06:07:46;;;;;;;7.10;2.70;;;;;;;11.99;100.00;98127.75;5141408;27;20218;-73
2021/11/01 06:10:24;;;;;;;16.33;2.30;;;;;;;12.05;100.00;98119.09;5131124;27;20217;-73
2021/11/01 06:15:37;;;;;;;11.43;2.97;;;;;;;12.00;100.00;98107.88;5105365;27;20593;-73
2021/11/01 06:18:05;;;;;;;6.80;2.60;;;;;;;11.96;100.00;98120.78;5135987;27;20669;-74
2021/11/01 06:20:31;;;;;;;12.07;3.60;;;;;;;11.95;100.00;98120.91;5135638;27;20222;-73
2021/11/01 06:22:58;;;;;;;13.90;3.03;;;;;;;11.91;100.00;98114.06;5135739;27;20214;-74
2021/11/01 06:25:24;;;;;;;4.20;2.10;;;;;;;11.84;100.00;98103.78;5126241;27;20179;-74
2021/11/01 06:27:54;;;;;;;8.85;2.55;;;;;;;11.65;100.00;98099.13;5135590;27;20195;-73
2021/11/01 06:30:25;;;;;;;7.15;2.40;;;;;;;11.61;100.00;98102.22;5133049;27;20190;-74
2021/11/01 06:33:10;;;;;;;6.22;2.55;;;;;;;11.68;100.00;98117.72;5150404;27;20265;-74
2021/11/01 06:49:53;;;;;;;8.13;2.90;;;;;;;11.63;100.00;98156.88;5080652;28;20203;-73
2021/11/01 07:14:39;;;;;;;9.77;3.20;;;;;;;11.27;100.00;98184.09;5066419;28;20188;-73
2021/11/01 07:17:08;;;;;;;6.47;3.22;;;;;;;11.42;100.00;98184.66;5082602;28;20227;-73
2021/11/01 07:19:57;;;;;;;10.40;3.05;;;;;;;11.34;100.00;98181.75;5062299;28;20193;-75
2021/11/01 08:23:39;;;;;;;6.00;2.50;;;;;;;11.84;100.00;98162.25;5066676;28;20297;-74
2021/11/01 08:29:11;;;;;;;5.93;2.50;;;;;;;11.93;100.00;98164.19;5018819;28;20180;-72
2021/11/01 08:34:59;;;;;;;7.75;2.38;;;;;;;11.93;99.11;98168.72;5066774;28;20196;-74
2021/11/01 08:37:38;;;;;;;8.73;2.70;;;;;;;12.08;97.67;98165.56;5053689;28;20546;-72
2021/11/01 08:40:24;;;;;;;8.70;2.90;;;;;;;12.18;96.55;98167.44;5053768;28;20974;-73
2021/11/01 08:48:40;;;;;;;11.98;3.83;;;;;;;12.40;93.43;98166.41;5029954;28;20198;-73
2021/11/01 09:02:25;;;;;;;10.38;3.33;;;;;;;13.25;87.35;98160.53;5053649;28;20243;-72
2021/11/01 09:05:11;;;;;;;6.75;2.35;;;;;;;13.58;86.08;98162.97;5053896;28;20202;-72
2021/11/01 09:08:08;;;;;;;12.88;3.03;;;;;;;13.58;83.59;98157.56;5046716;28;20197;-73
2021/11/01 09:10:58;;;;;;;9.27;3.67;;;;;;;13.49;83.91;98157.41;5053247;28;20190;-73
2021/11/01 09:19:16;;;;;;;6.72;2.58;;;;;;;13.69;84.04;98160.97;5008453;28;20546;-74
2021/11/01 09:22:11;;;;;;;4.88;2.40;;;;;;;13.46;80.86;98155.00;5047061;28;20205;-73
2021/11/01 09:24:43;;;;;;;8.25;3.45;;;;;;;13.71;81.30;98136.50;5052278;28;20226;-75
2021/11/01 09:27:13;;;;;;;8.60;2.78;;;;;;;13.92;79.84;98145.25;5052721;28;20612;-73
2021/11/01 09:29:52;;;;;;;9.05;2.50;;;;;;;13.55;79.44;98137.06;5053721;28;20198;-73
2021/11/01 09:41:06;;;;;;;6.63;2.50;;;;;;;14.11;77.06;98146.22;4991770;28;20196;-73
2021/11/01 09:43:33;;;;;;;5.63;3.00;;;;;;;13.86;77.81;98148.56;5040402;28;20222;-73
2021/11/01 09:46:02;;;;;;;6.68;2.70;;;;;;;14.04;77.35;98158.63;5052631;28;20194;-74
2021/11/01 09:48:29;;;;;;;9.00;3.45;;;;;;;13.91;77.90;98159.81;5051945;28;20218;-73
2021/11/01 09:50:56;;;;;;;7.57;3.00;;;;;;;14.03;77.61;98156.94;5052505;28;20196;-74
2021/11/01 09:53:28;;;;;;;13.25;3.67;;;;;;;13.93;76.77;98157.81;5044834;28;20571;-73
2021/11/01 09:56:06;;;;;;;6.78;2.42;;;;;;;14.16;76.67;98152.06;5052677;28;20186;-74
2021/11/01 10:01:21;;;;;;;6.38;2.92;;;;;;;14.33;74.94;98148.56;5052421;28;20252;-75
2021/11/01 10:03:51;;;;;;;5.20;3.35;;;;;;;14.31;74.31;98155.13;5052404;28;20217;-74
2021/11/01 10:06:21;;;;;;;3.75;2.40;;;;;;;14.18;75.19;98155.47;5051930;28;20193;-72
2021/11/01 10:08:50;;;;;;;8.68;2.53;;;;;;;14.08;75.01;98149.22;5052176;28;20187;-74
2021/11/01 10:11:19;;;;;;;10.20;3.20;;;;;;;14.37;74.14;98146.41;5047379;28;20221;-74
2021/11/01 10:13:49;;;;;;;8.65;3.00;;;;;;;14.29;74.39;98141.75;5052598;28;20199;-73
2021/11/01 10:19:14;;;;;;;4.43;2.55;;;;;;;13.91;74.84;98132.75;5051625;28;20306;-72
2021/11/01 10:21:50;;;;;;;5.45;2.50;;;;;;;14.15;75.30;98142.22;5052104;28;20199;-73
2021/11/01 10:24:25;;;;;;;8.57;3.05;;;;;;;14.35;75.25;98137.59;5044314;28;20235;-74
2021/11/01 10:26:54;;;;;;;5.68;2.45;;;;;;;14.45;73.73;98145.66;5050921;28;20551;-72
2021/11/01 10:29:21;;;;;;;7.32;2.80;;;;;;;14.59;72.69;98142.50;5051659;28;20320;-74
2021/11/01 10:31:48;;;;;;;9.63;3.25;;;;;;;14.67;70.78;98139.88;5051550;28;20218;-73
2021/11/01 10:34:16;;;;;;;6.95;2.15;;;;;;;14.88;69.76;98136.94;5051640;28;20205;-74
2021/11/01 10:36:46;;;;;;;11.20;2.80;;;;;;;14.66;70.49;98138.19;5051526;28;20207;-74
2021/11/01 10:39:19;;;;;;;7.35;2.55;;;;;;;14.84;69.31;98126.56;5045188;28;20273;-72
2021/11/01 10:41:52;;;;;;;6.70;2.70;;;;;;;14.86;69.22;98121.84;5051905;28;20187;-72
2021/11/01 10:44:55;;;;;;;5.30;3.00;;;;;;;15.35;67.30;98125.91;5051173;28;20234;-73
2021/11/01 10:47:49;;;;;;;5.55;2.65;;;;;;;15.52;64.82;98120.63;5050320;28;20256;-73
2021/11/01 11:12:49;;;;;;;4.20;1.73;;;;;;;16.34;61.17;98084.03;5049662;28;20250;-74
2021/11/01 11:15:18;;;;;;;4.97;1.77;;;;;;;15.65;62.28;98085.81;5050249;28;20190;-73
2021/11/01 11:18:00;;;;;;;7.40;2.85;;;;;;;16.00;62.55;98087.56;5048827;28;20221;-73
2021/11/01 11:20:45;;;;;;;5.88;1.67;;;;;;;16.03;61.29;98084.56;5048326;28;20190;-74
2021/11/01 11:23:50;;;;;;;4.22;1.77;;;;;;;16.27;60.20;98075.69;5044847;28;20273;-72
2021/11/01 11:29:20;;;;;;;7.32;1.65;;;;;;;15.61;60.74;98077.13;5049690;28;20186;-74
2021/11/01 11:40:38;;;;;;;4.07;1.70;;;;;;;16.28;58.73;98060.25;5050092;28;20270;-73
2021/11/01 11:43:28;;;;;;;4.20;1.63;;;;;;;15.59;61.52;98062.84;5047466;28;20189;-74
2021/11/01 11:48:48;;;;;;;5.38;2.63;;;;;;;15.87;61.49;98065.44;5050167;28;20210;-74
2021/11/01 11:51:15;;;;;;;2.80;2.08;;;;;;;16.12;61.44;98060.16;5050122;28;20205;-73
2021/11/01 11:53:57;;;;;;;5.50;3.65;;;;;;;16.11;61.21;98069.31;5049703;28;21496;-73
2021/11/01 11:56:31;;;;;;;7.03;3.60;;;;;;;15.90;62.59;98067.00;5050566;28;20197;-75
2021/11/01 11:59:00;;;;;;;2.97;1.70;;;;;;;15.32;64.42;98068.41;5050221;28;20194;-73
2021/11/01 12:01:29;;;;;;;6.15;1.90;;;;;;;15.19;65.67;98057.94;5049935;28;20187;-72
2021/11/01 12:03:58;;;;;;;2.50;2.30;;;;;;;15.35;64.77;98055.41;5044565;28;20194;-73
2021/11/01 12:06:44;;;;;;;4.13;2.17;;;;;;;14.99;66.73;98062.69;5050238;28;20192;-73
2021/11/01 12:09:17;;;;;;;4.90;1.50;;;;;;;15.19;67.97;98061.50;5050252;28;20193;-75
2021/11/01 12:12:09;;;;;;;2.90;1.20;;;;;;;14.59;68.14;98066.69;5045883;28;20987;-72
2021/11/01 12:17:01;;;;;;;2.30;1.50;;;;;;;13.92;70.29;98065.97;5054169;28;20638;-73
2021/11/01 12:17:28;;;;;;;2.90;1.20;;;;;;;13.47;74.33;98063.94;5053608;28;20242;-74
2021/11/01 12:20:00;;;;;;;2.55;1.00;;;;;;;12.93;77.05;98058.09;5053704;28;20188;-74
2021/11/01 12:22:31;;;;;;;2.17;1.00;;;;;;;13.10;79.75;98054.69;5053870;28;20204;-74
2021/11/01 12:25:02;;;;;;;3.67;1.30;;;;;;;12.94;78.77;98059.81;5052823;28;20624;-73
2021/11/01 12:27:32;;;;;;;2.90;1.45;;;;;;;13.11;78.41;98061.81;5053825;28;20218;-73
2021/11/01 12:30:00;;;;;;;3.88;1.20;;;;;;;12.96;79.62;98060.53;5053281;28;20193;-73
2021/11/01 12:32:27;;;;;;;3.22;1.23;;;;;;;12.40;86.34;98061.16;5053100;28;20198;-73
2021/11/01 12:34:58;;;;;;;7.30;1.67;;;;;;;12.19;94.45;98069.31;5053517;28;20183;-73
2021/11/01 12:37:28;;;;;;;3.45;1.42;;;;;;;11.52;100.00;98085.00;5052974;28;20549;-73
2021/11/01 12:40:07;;;;;;;3.50;1.90;;;;;;;11.15;100.00;98098.06;5054051;28;20278;-73
2021/11/01 12:42:44;;;;;;;6.13;1.83;;;;;;;11.13;100.00;98100.88;5053584;28;20213;-73
2021/11/01 12:48:36;;;;;;;6.15;2.83;;;;;;;11.17;100.00;98088.00;5052863;28;20332;-74
2021/11/01 12:59:42;;;;;;;6.93;2.50;;;;;;;12.09;100.00;98070.13;5053362;28;20244;-74
2021/11/01 13:02:12;;;;;;;5.32;3.10;;;;;;;12.47;100.00;98065.00;5050798;28;20272;-73
2021/11/01 13:04:39;;;;;;;5.53;2.60;;;;;;;13.06;100.00;98047.88;5053216;28;20235;-73
2021/11/01 13:07:19;;;;;;;5.07;2.45;;;;;;;13.17;100.00;98054.97;5052698;28;20196;-72
2021/11/01 13:09:54;;;;;;;9.07;2.10;;;;;;;13.07;100.00;98040.59;5053255;28;20539;-73
2021/11/01 13:18:12;;;;;;;3.65;2.00;;;;;;;13.94;94.11;98037.75;5052840;28;20217;-74
2021/11/01 13:20:41;;;;;;;5.20;2.10;;;;;;;14.28;86.62;98034.47;5047974;28;20216;-75
2021/11/01 13:23:10;;;;;;;2.53;1.38;;;;;;;14.19;83.73;98033.50;5051862;28;20549;-74
2021/11/01 13:25:59;;;;;;;2.85;2.20;;;;;;;14.00;88.33;98030.91;5052534;28;20229;-74
2021/11/01 13:28:42;;;;;;;2.95;1.20;;;;;;;14.11;81.36;98019.00;5046282;28;20188;-73
2021/11/01 13:36:50;;;;;;;6.97;2.10;;;;;;;15.47;77.31;98020.75;5051953;28;20272;-74
2021/11/01 13:39:23;;;;;;;4.22;2.30;;;;;;;15.46;74.49;98016.31;5048690;28;20198;-73
2021/11/01 13:41:52;;;;;;;4.65;2.15;;;;;;;15.50;75.97;98017.69;5052209;28;20277;-74
2021/11/01 13:44:21;;;;;;;5.90;3.40;;;;;;;15.48;76.38;98013.44;5051231;28;20195;-74
2021/11/01 13:46:49;;;;;;;4.63;2.22;;;;;;;14.78;76.92;98006.94;5052235;28;20196;-74
2021/11/01 13:49:18;;;;;;;5.05;3.20;;;;;;;15.64;75.85;98000.81;5050701;28;20208;-73
2021/11/01 13:51:47;;;;;;;3.40;1.80;;;;;;;16.19;75.44;97990.59;5052594;28;20529;-72
2021/11/01 13:54:23;;;;;;;3.67;1.58;;;;;;;16.45;70.30;97991.38;5044662;28;20292;-73
2021/11/01 13:56:52;;;;;;;4.43;1.58;;;;;;;15.90;68.61;98001.88;5052146;28;20636;-73
2021/11/01 13:59:30;;;;;;;1.10;0.88;;;;;;;14.10;73.71;98001.94;5051892;28;20222;-74
2021/11/01 14:02:17;;;;;;;3.40;1.35;;;;;;;14.05;75.83;98006.09;5051667;28;20198;-74
2021/11/01 14:13:06;;;;;;;4.47;1.98;;;;;;;13.54;78.80;97990.22;5051554;28;20231;-74
2021/11/01 14:29:34;;;;;;;1.88;1.20;;;;;;;13.21;81.32;97979.88;5037743;28;20255;-72
2021/11/01 15:19:41;;;;;;;4.93;2.92;;;;;;;13.27;69.71;97985.56;5026325;28;20697;-73
2021/11/01 15:22:29;;;;;;;2.55;1.90;;;;;;;13.30;69.62;97990.69;5083438;28;20765;-75
2021/11/01 15:25:25;;;;;;;4.43;2.10;;;;;;;13.30;69.90;97984.44;5089392;28;20671;-74
2021/11/01 15:28:15;;;;;;;4.18;2.13;;;;;;;13.20;70.03;97992.53;5089155;28;20192;-74
2021/11/01 15:31:29;;;;;;;7.00;1.65;;;;;;;13.23;70.85;97985.97;5084668;28;20188;-73
2021/11/01 15:34:04;;;;;;;6.00;2.33;;;;;;;13.10;70.97;97992.53;5088454;28;20215;-74
2021/11/01 15:39:34;;;;;;;3.95;1.75;;;;;;;12.97;70.61;97988.44;5059536;28;20560;-73
2021/11/01 15:42:52;;;;;;;4.13;2.60;;;;;;;12.95;71.32;97983.16;5088790;28;20665;-73
2021/11/01 16:18:12;;;;;;;5.28;3.10;;;;;;;12.27;73.49;98015.53;5087183;28;20192;-74
2021/11/01 16:20:39;;;;;;;5.60;3.25;;;;;;;12.22;73.32;98018.63;5087236;28;20200;-73
2021/11/01 16:23:24;;;;;;;6.75;5.85;;;;;;;12.07;74.81;98018.19;5086676;28;20216;-73
2021/11/01 16:25:56;;;;;;;9.30;5.07;;;;;;;12.11;74.71;98016.06;5083719;28;20638;-75
2021/11/01 16:28:22;;;;;;;5.97;3.70;;;;;;;12.22;72.56;98023.19;5073574;28;20236;-74
2021/11/01 16:31:01;;;;;;;3.60;2.10;;;;;;;12.31;72.23;98017.81;5073552;28;20189;-72
2021/11/01 16:33:33;;;;;;;4.38;2.75;;;;;;;12.17;73.24;98020.06;5073361;28;20606;-74
2021/11/01 16:36:08;;;;;;;3.92;3.00;;;;;;;12.22;74.03;98024.03;5072819;28;20209;-74
2021/11/01 16:38:43;;;;;;;4.45;3.17;;;;;;;12.11;76.17;98016.06;5073548;28;20220;-74
2021/11/01 16:41:11;;;;;;;6.60;3.00;;;;;;;11.99;76.91;98025.25;5073467;28;20621;-74
2021/11/01 16:43:37;;;;;;;4.25;3.28;;;;;;;11.98;78.21;98021.69;5073008;28;20197;-74
2021/11/01 16:46:04;;;;;;;2.70;2.15;;;;;;;11.80;80.00;98021.47;5073252;28;20276;-75
2021/11/01 16:48:32;;;;;;;6.40;3.20;;;;;;;11.86;80.01;98020.03;5071393;28;20300;-74
2021/11/01 16:51:01;;;;;;;6.55;4.22;;;;;;;11.77;80.58;98020.88;5072641;28;20272;-74
2021/11/01 16:53:32;;;;;;;4.60;3.60;;;;;;;11.92;80.25;98016.84;5071866;28;20216;-73
2021/11/01 16:56:12;;;;;;;7.03;4.75;;;;;;;11.86;80.75;98020.91;5071531;28;20224;-73
2021/11/01 16:58:44;;;;;;;8.13;4.80;;;;;;;11.95;80.20;98021.97;5072872;28;20646;-74
2021/11/01 17:01:15;;;;;;;7.68;5.05;;;;;;;12.02;79.41;98028.50;5071708;28;20271;-74
2021/11/01 17:03:45;;;;;;;5.10;4.07;;;;;;;12.01;79.21;98028.66;5072658;28;20635;-73
2021/11/01 17:06:24;;;;;;;4.75;3.72;;;;;;;11.94;79.71;98031.06;5072475;28;20202;-74
2021/11/01 17:09:11;;;;;;;5.60;4.13;;;;;;;12.01;78.81;98036.75;5073072;28;20631;-74
2021/11/01 17:22:42;;;;;;;6.82;3.53;;;;;;;11.63;81.14;98028.31;5072632;28;20192;-74
2021/11/01 17:25:12;;;;;;;8.65;3.25;;;;;;;11.76;80.19;98038.88;5075875;28;20229;-73
2021/11/01 17:36:13;;;;;;;11.13;4.15;;;;;;;11.35;85.11;98051.44;5061299;28;20216;-75
2021/11/01 18:39:47;;;;;;;8.18;6.75;;;;;;;9.73;100.00;98054.91;5072497;28;20185;-74
2021/11/01 18:42:27;;;;;;;14.82;9.10;;;;;;;9.70;100.00;98050.63;5071644;28;20207;-74